Terminal Aerodrome Forecast
Issued by NWS Tiyan, Guam

Home | Current Version | Previous Version | Text Only | Print | Product List | Glossary On
Versions: 1 2 3 4 5 6 7 8 9 10 11 12 13 14 15 16 17 18
000
FTPQ31 PGUM 250900 AAB
TAFPQ
TAF AMD
PGUM 250930Z 2510/2612 07009KT P6SM VCSH FEW018 SCT040 BKN120
      TEMPO 2511/2513 05012G20KT 3SM +TSRA BKN014CB OVC025=

USA.gov is the U.S. government's official web portal to all federal, state and local government web resources and services.